createdAt,value
2023-04-11T00:01:08.023Z,50.30
2023-04-11T00:03:34.735Z,49.93
2023-04-11T00:06:01.575Z,49.87
2023-04-11T00:08:28.094Z,50.01
2023-04-11T00:10:54.669Z,49.87
2023-04-11T00:13:21.437Z,50.12
2023-04-11T00:15:48.036Z,50.22
2023-04-11T00:18:14.690Z,49.95
2023-04-11T00:20:41.246Z,49.85
2023-04-11T00:23:08.878Z,49.75
2023-04-11T00:25:37.249Z,49.68
2023-04-11T00:28:04.308Z,50.12
2023-04-11T00:30:31.037Z,49.72
2023-04-11T00:32:57.640Z,50.05
2023-04-11T00:35:24.410Z,49.89
2023-04-11T00:37:56.040Z,50.05
2023-04-11T00:40:23.035Z,50.01
2023-04-11T00:42:49.567Z,50.01
2023-04-11T00:45:16.190Z,50.11
2023-04-11T00:47:42.797Z,49.90
2023-04-11T00:50:09.685Z,50.04
2023-04-11T00:52:36.529Z,49.97
2023-04-11T00:55:03.497Z,49.97
2023-04-11T00:57:30.911Z,49.92
2023-04-11T00:59:58.248Z,50.27
2023-04-11T01:02:25.132Z,49.77
2023-04-11T01:04:51.752Z,49.99
2023-04-11T01:07:18.275Z,49.82
2023-04-11T01:09:44.852Z,50.03
2023-04-11T01:12:11.691Z,49.91
2023-04-11T01:14:38.330Z,50.19
2023-04-11T01:17:05.086Z,50.20
2023-04-11T01:19:32.045Z,50.50
2023-04-11T01:21:58.839Z,50.35
2023-04-11T01:24:25.667Z,50.19
2023-04-11T01:26:52.247Z,49.92
2023-04-11T01:29:18.838Z,49.84
2023-04-11T01:31:45.532Z,50.19
2023-04-11T01:34:14.145Z,49.98
2023-04-11T01:36:41.643Z,50.03
2023-04-11T01:39:08.242Z,50.22
2023-04-11T01:41:35.739Z,50.21
2023-04-11T01:44:03.876Z,50.06
2023-04-11T01:46:30.506Z,50.19
2023-04-11T01:48:58.183Z,50.14
2023-04-11T01:51:24.854Z,50.20
2023-04-11T01:53:51.386Z,50.13
2023-04-11T01:56:17.926Z,50.53
2023-04-11T01:58:44.514Z,50.39
2023-04-11T02:01:13.279Z,49.93
2023-04-11T02:03:39.969Z,49.99
2023-04-11T02:06:06.663Z,50.11
2023-04-11T02:08:33.170Z,50.10
2023-04-11T02:10:59.697Z,50.31
2023-04-11T02:13:26.237Z,50.63
2023-04-11T02:15:52.829Z,50.23
2023-04-11T02:18:19.446Z,50.26
2023-04-11T02:20:46.001Z,50.02
2023-04-11T02:23:12.762Z,49.77
2023-04-11T02:25:39.380Z,50.33
2023-04-11T02:28:08.109Z,49.80
2023-04-11T02:30:34.936Z,50.51
2023-04-11T02:33:01.707Z,50.37
2023-04-11T02:35:28.403Z,49.78
2023-04-11T02:37:54.939Z,50.09
2023-04-11T02:40:21.457Z,50.06
2023-04-11T02:42:48.041Z,49.99
2023-04-11T02:45:14.582Z,50.09
2023-04-11T02:47:41.244Z,49.80
2023-04-11T02:50:08.547Z,50.20
2023-04-11T02:52:35.088Z,50.17
2023-04-11T02:55:01.720Z,50.49
2023-04-11T02:57:28.250Z,50.11
2023-04-11T02:59:54.733Z,49.97
2023-04-11T03:02:23.464Z,50.15
2023-04-11T03:04:50.176Z,50.11
2023-04-11T03:07:16.728Z,50.30
2023-04-11T03:09:43.343Z,50.07
2023-04-11T03:12:09.947Z,50.17
2023-04-11T03:14:36.452Z,50.73
2023-04-11T03:17:02.912Z,50.00
2023-04-11T03:19:29.471Z,50.71
2023-04-11T03:21:56.024Z,50.34
2023-04-11T03:24:22.581Z,49.92
2023-04-11T03:26:49.119Z,50.15
2023-04-11T03:29:16.640Z,50.66
2023-04-11T03:31:43.305Z,50.37
2023-04-11T03:34:09.839Z,50.40
2023-04-11T03:36:36.337Z,50.25
2023-04-11T03:39:03.819Z,50.34
2023-04-11T03:41:30.373Z,50.13
2023-04-11T03:43:56.889Z,49.95
2023-04-11T03:46:23.529Z,50.12
2023-04-11T03:48:50.244Z,50.61
2023-04-11T03:51:16.833Z,49.92
2023-04-11T03:53:43.374Z,50.38
2023-04-11T03:56:10.343Z,50.33
2023-04-11T03:58:37.084Z,50.11
2023-04-11T04:01:03.743Z,50.26
2023-04-11T04:03:30.631Z,50.82
2023-04-11T04:05:57.289Z,49.91
2023-04-11T04:08:23.803Z,50.00
2023-04-11T04:10:50.392Z,50.52
2023-04-11T04:13:16.973Z,50.18
2023-04-11T04:15:43.575Z,50.24
2023-04-11T04:18:10.386Z,50.05
2023-04-11T04:20:36.991Z,50.58
2023-04-11T04:23:04.643Z,50.08
2023-04-11T04:25:31.299Z,50.50
2023-04-11T04:27:58.202Z,50.17
2023-04-11T04:30:28.633Z,50.55
2023-04-11T04:33:00.015Z,50.40
2023-04-11T04:35:26.793Z,50.36
2023-04-11T04:37:54.191Z,50.46
2023-04-11T04:40:21.370Z,50.32
2023-04-11T04:42:58.173Z,50.37
2023-04-11T04:45:25.977Z,50.38
2023-04-11T04:47:52.556Z,50.29
2023-04-11T04:50:19.735Z,50.45
2023-04-11T04:52:46.555Z,50.22
2023-04-11T04:55:13.875Z,50.26
2023-04-11T04:57:40.577Z,50.62
2023-04-11T05:00:11.436Z,50.16
2023-04-11T05:02:38.211Z,50.24
2023-04-11T05:05:05.388Z,50.29
2023-04-11T05:07:31.953Z,50.08
2023-04-11T05:09:58.513Z,50.33
2023-04-11T05:12:27.246Z,50.19
2023-04-11T05:14:55.500Z,50.77
2023-04-11T05:17:24.699Z,50.18
2023-04-11T05:19:52.230Z,50.22
2023-04-11T05:22:18.808Z,49.93
2023-04-11T05:24:45.394Z,50.58
2023-04-11T05:27:13.368Z,50.28
2023-04-11T05:29:40.038Z,50.33
2023-04-11T05:32:06.600Z,50.61
2023-04-11T05:34:34.357Z,50.24
2023-04-11T05:37:01.441Z,50.78
2023-04-11T05:39:28.031Z,49.89
2023-04-11T05:41:54.613Z,50.29
2023-04-11T05:44:21.272Z,50.10
2023-04-11T05:46:47.790Z,49.67
2023-04-11T05:49:14.358Z,49.37
2023-04-11T05:51:41.038Z,49.35
2023-04-11T05:54:07.640Z,49.64
2023-04-11T05:56:35.260Z,49.62
2023-04-11T05:59:01.845Z,49.77
2023-04-11T06:01:30.152Z,49.41
2023-04-11T06:03:57.579Z,50.21
2023-04-11T06:06:24.648Z,49.75
2023-04-11T06:08:51.743Z,50.01
2023-04-11T06:11:18.308Z,50.27
2023-04-11T06:13:44.837Z,49.65
2023-04-11T06:16:11.452Z,50.16
2023-04-11T06:18:38.031Z,49.64
2023-04-11T06:21:04.727Z,49.69
2023-04-11T06:23:31.222Z,49.40
2023-04-11T06:25:57.723Z,49.55
2023-04-11T06:28:24.249Z,49.89
2023-04-11T06:30:52.195Z,49.97
2023-04-11T06:33:18.818Z,49.69
2023-04-11T06:35:45.714Z,49.68
2023-04-11T06:38:12.317Z,49.90
2023-04-11T06:40:38.838Z,50.22
2023-04-11T06:43:05.526Z,50.32
2023-04-11T06:45:32.031Z,49.69
2023-04-11T06:47:58.659Z,49.90
2023-04-11T06:50:25.265Z,50.10
2023-04-11T06:52:51.893Z,49.70
2023-04-11T06:55:18.555Z,50.06
2023-04-11T06:57:45.252Z,50.31
2023-04-11T07:00:13.406Z,50.19
2023-04-11T07:02:40.128Z,50.00
2023-04-11T07:05:09.245Z,50.28
2023-04-11T07:07:36.371Z,50.27
2023-04-11T07:10:03.273Z,50.48
2023-04-11T07:12:29.759Z,50.40
2023-04-11T07:14:57.591Z,50.70
2023-04-11T07:17:24.324Z,50.67
2023-04-11T07:19:50.970Z,50.61
2023-04-11T07:22:17.488Z,50.64
2023-04-11T07:24:46.538Z,50.23
2023-04-11T07:27:14.289Z,50.41
2023-04-11T07:29:41.168Z,50.46
2023-04-11T07:32:07.756Z,50.71
2023-04-11T07:34:34.298Z,50.70
2023-04-11T07:37:01.112Z,50.65
2023-04-11T07:39:27.853Z,50.29
2023-04-11T07:41:54.445Z,50.32
2023-04-11T07:44:21.937Z,50.22
2023-04-11T07:46:48.957Z,50.45
2023-04-11T07:49:15.643Z,50.32
2023-04-11T07:51:42.164Z,50.26
2023-04-11T07:54:09.555Z,50.73
2023-04-11T07:56:36.181Z,50.90
2023-04-11T07:59:03.332Z,50.64
2023-04-11T08:01:29.835Z,50.64
2023-04-11T08:03:56.735Z,50.78
2023-04-11T08:06:23.734Z,50.77
2023-04-11T08:08:50.639Z,50.72
2023-04-11T08:11:17.227Z,50.70
2023-04-11T08:13:43.752Z,50.70
2023-04-11T08:16:11.763Z,50.80
2023-04-11T08:18:42.012Z,51.18
2023-04-11T08:21:10.808Z,50.96
2023-04-11T08:23:37.529Z,50.95
2023-04-11T08:26:04.074Z,50.79
2023-04-11T08:28:30.797Z,50.98
2023-04-11T08:30:58.426Z,50.36
2023-04-11T08:33:26.140Z,50.87
2023-04-11T08:35:52.801Z,50.90
2023-04-11T08:38:19.737Z,50.98
2023-04-11T08:40:46.447Z,51.15
2023-04-11T08:43:13.075Z,50.99
2023-04-11T08:45:40.141Z,50.85
2023-04-11T08:48:07.257Z,50.87
2023-04-11T08:50:34.702Z,51.09
2023-04-11T08:53:04.304Z,50.95
2023-04-11T08:55:31.294Z,50.95
2023-04-11T08:57:59.606Z,51.33
2023-04-11T09:00:28.927Z,50.76
2023-04-11T09:02:56.985Z,50.92
2023-04-11T09:05:27.209Z,51.02
2023-04-11T09:07:54.889Z,50.82
2023-04-11T09:10:22.084Z,50.97
2023-04-11T09:12:48.711Z,51.53
2023-04-11T09:15:22.457Z,51.01
2023-04-11T09:17:49.909Z,51.21
2023-04-11T09:20:20.434Z,51.10
2023-04-11T09:22:49.953Z,51.45
2023-04-11T09:25:18.145Z,51.33
2023-04-11T09:27:44.690Z,51.45
2023-04-11T09:30:20.056Z,51.60
2023-04-11T09:32:48.647Z,51.69
2023-04-11T09:35:20.544Z,51.59
2023-04-11T09:37:47.683Z,51.66
2023-04-11T09:40:14.996Z,51.71
2023-04-11T09:42:42.168Z,51.87
2023-04-11T09:45:18.143Z,51.84
2023-04-11T09:47:45.866Z,51.84
2023-04-11T09:50:12.915Z,51.78
2023-04-11T09:52:41.150Z,51.79
2023-04-11T09:55:08.170Z,51.94
2023-04-11T09:57:34.868Z,51.99
2023-04-11T10:00:06.569Z,51.83
2023-04-11T10:02:33.224Z,51.87
2023-04-11T10:05:04.250Z,51.87
2023-04-11T10:07:30.925Z,51.94
2023-04-11T10:09:57.584Z,51.50
2023-04-11T10:12:33.486Z,51.89
2023-04-11T10:15:08.280Z,51.68
2023-04-11T10:17:34.975Z,51.84
2023-04-11T10:20:01.655Z,51.32
2023-04-11T10:22:43.925Z,51.69
2023-04-11T10:25:17.649Z,51.53
2023-04-11T10:27:50.694Z,51.48
2023-04-11T10:30:17.233Z,51.72
2023-04-11T10:33:09.565Z,51.27
2023-04-11T10:35:36.212Z,51.80
2023-04-11T10:38:02.756Z,51.21
2023-04-11T10:40:29.322Z,51.30
2023-04-11T10:42:57.357Z,51.98
2023-04-11T10:45:25.027Z,51.64
2023-04-11T10:47:51.533Z,51.69
2023-04-11T10:50:27.251Z,51.88
2023-04-11T10:52:54.236Z,51.80
2023-04-11T10:55:21.076Z,51.74
2023-04-11T10:58:05.644Z,51.60
2023-04-11T11:01:00.899Z,51.61
2023-04-11T11:03:30.380Z,51.62
2023-04-11T11:06:04.664Z,51.62
2023-04-11T11:08:38.133Z,51.60
2023-04-11T11:11:08.694Z,51.45
2023-04-11T11:13:41.322Z,51.61
2023-04-11T11:16:08.716Z,51.56
2023-04-11T11:18:35.456Z,51.15
2023-04-11T11:21:01.986Z,52.02
2023-04-11T11:23:28.568Z,51.41
2023-04-11T11:25:55.812Z,51.49
2023-04-11T11:28:22.593Z,51.45
2023-04-11T11:30:56.582Z,51.30
2023-04-11T11:33:26.752Z,51.32
2023-04-11T11:36:00.559Z,51.22
2023-04-11T11:38:30.472Z,51.26
2023-04-11T11:40:57.809Z,51.32
2023-04-11T11:43:27.521Z,51.35
2023-04-11T11:46:08.790Z,52.42
2023-04-11T11:48:35.665Z,51.58
2023-04-11T11:51:02.261Z,51.80
2023-04-11T11:53:28.837Z,51.88
2023-04-11T11:55:56.838Z,51.67
2023-04-11T11:58:23.554Z,51.83
2023-04-11T12:00:50.911Z,51.84
2023-04-11T12:03:18.833Z,51.87
2023-04-11T12:05:47.675Z,51.92
2023-04-11T12:08:14.270Z,51.71
2023-04-11T12:10:42.309Z,51.59
2023-04-11T12:13:15.067Z,51.69
2023-04-11T12:15:43.356Z,51.67
2023-04-11T12:18:09.988Z,51.55
2023-04-11T12:20:36.585Z,51.71
2023-04-11T12:23:03.111Z,51.73
2023-04-11T12:25:30.235Z,51.63
2023-04-11T12:27:56.829Z,51.33
2023-04-11T12:30:23.393Z,51.79
2023-04-11T12:32:50.014Z,51.80
2023-04-11T12:35:16.628Z,51.76
2023-04-11T12:37:44.202Z,51.43
2023-04-11T12:40:12.307Z,51.34
2023-04-11T12:42:49.401Z,51.44
2023-04-11T12:45:22.212Z,51.22
2023-04-11T12:47:48.809Z,51.40
2023-04-11T12:50:15.460Z,50.04
2023-04-11T12:52:42.004Z,49.31
2023-04-11T12:55:09.402Z,50.12
2023-04-11T12:57:36.614Z,49.58
2023-04-11T13:00:07.127Z,50.19
2023-04-11T13:02:42.049Z,50.03
2023-04-11T13:05:10.911Z,50.60
2023-04-11T13:07:37.908Z,50.51
2023-04-11T13:10:06.674Z,50.73
2023-04-11T13:12:34.202Z,50.64
2023-04-11T13:15:01.009Z,50.54
2023-04-11T13:17:27.540Z,50.40
2023-04-11T13:19:54.058Z,50.89
2023-04-11T13:22:21.082Z,51.46
2023-04-11T13:24:47.649Z,50.91
2023-04-11T13:27:14.208Z,51.61
2023-04-11T13:29:41.138Z,50.24
2023-04-11T13:32:07.726Z,51.28
2023-04-11T13:34:34.349Z,51.23
2023-04-11T13:37:00.948Z,51.35
2023-04-11T13:39:30.562Z,51.16
2023-04-11T13:41:57.121Z,51.53
2023-04-11T13:44:23.650Z,51.82
2023-04-11T13:46:50.219Z,51.32
2023-04-11T13:49:16.707Z,51.68
2023-04-11T13:51:43.265Z,51.42
2023-04-11T13:54:09.816Z,51.62
2023-04-11T13:56:36.513Z,51.61
2023-04-11T13:59:04.533Z,51.87
2023-04-11T14:01:31.506Z,52.13
2023-04-11T14:03:58.296Z,51.46
2023-04-11T14:06:25.028Z,51.74
2023-04-11T14:08:52.034Z,51.79
2023-04-11T14:11:18.541Z,51.69
2023-04-11T14:13:45.052Z,51.89
2023-04-11T14:16:11.635Z,51.53
2023-04-11T14:18:38.160Z,51.72
2023-04-11T14:21:08.258Z,51.88
2023-04-11T14:23:34.778Z,51.38
2023-04-11T14:26:01.351Z,51.76
2023-04-11T14:28:27.853Z,52.04
2023-04-11T14:30:55.666Z,52.07
2023-04-11T14:33:23.305Z,51.84
2023-04-11T14:35:50.793Z,51.88
2023-04-11T14:38:17.688Z,51.79
2023-04-11T14:40:44.392Z,51.88
2023-04-11T14:43:11.300Z,52.22
2023-04-11T14:45:37.924Z,52.20
2023-04-11T14:48:04.782Z,51.77
2023-04-11T14:50:31.420Z,51.71
2023-04-11T14:52:58.036Z,51.83
2023-04-11T14:55:24.580Z,51.72
2023-04-11T14:57:52.654Z,51.81
2023-04-11T15:00:22.375Z,51.96
2023-04-11T15:02:54.469Z,51.98
2023-04-11T15:05:21.567Z,51.96
2023-04-11T15:07:48.875Z,52.07
2023-04-11T15:10:17.307Z,52.06
2023-04-11T15:12:43.976Z,52.22
2023-04-11T15:15:11.183Z,52.23
2023-04-11T15:17:48.496Z,52.30
2023-04-11T15:20:15.654Z,52.36
2023-04-11T15:22:43.397Z,52.41
2023-04-11T15:25:14.437Z,52.51
2023-04-11T15:27:41.192Z,52.42
2023-04-11T15:30:08.648Z,52.48
2023-04-11T15:32:35.329Z,52.49
2023-04-11T15:35:02.071Z,52.58
2023-04-11T15:37:29.050Z,52.87
2023-04-11T15:39:57.641Z,52.76
2023-04-11T15:42:24.591Z,53.21
2023-04-11T15:44:51.217Z,53.39
2023-04-11T15:47:18.349Z,53.48
2023-04-11T15:49:44.987Z,53.98
2023-04-11T15:52:11.860Z,53.92
2023-04-11T15:54:38.431Z,53.40
2023-04-11T15:57:04.913Z,53.82
2023-04-11T15:59:31.473Z,53.90
2023-04-11T16:01:58.121Z,54.21
2023-04-11T16:04:25.699Z,53.98
2023-04-11T16:06:52.623Z,53.42
2023-04-11T16:09:19.275Z,53.52
2023-04-11T16:11:46.019Z,53.59
2023-04-11T16:14:12.798Z,53.00
2023-04-11T16:16:39.507Z,53.46
2023-04-11T16:19:06.554Z,53.12
2023-04-11T16:21:33.116Z,53.00
2023-04-11T16:23:59.805Z,53.06
2023-04-11T16:26:26.995Z,52.48
2023-04-11T16:28:53.592Z,52.43
2023-04-11T16:31:24.480Z,52.44
2023-04-11T16:33:52.692Z,52.44
2023-04-11T16:36:20.392Z,52.42
2023-04-11T16:38:47.639Z,52.29
2023-04-11T16:41:15.499Z,52.17
2023-04-11T16:43:42.024Z,51.84
2023-04-11T16:46:13.179Z,52.00
2023-04-11T16:48:40.886Z,52.23
2023-04-11T16:51:07.822Z,52.05
2023-04-11T16:53:34.841Z,52.22
2023-04-11T16:56:01.444Z,52.26
2023-04-11T16:58:28.497Z,52.14
2023-04-11T17:00:55.382Z,52.15
2023-04-11T17:03:22.162Z,52.00
2023-04-11T17:05:48.840Z,51.80
2023-04-11T17:08:17.206Z,52.10
2023-04-11T17:10:44.239Z,52.58
2023-04-11T17:13:11.926Z,52.09
2023-04-11T17:15:38.456Z,51.58
2023-04-11T17:18:05.113Z,52.11
2023-04-11T17:20:31.668Z,52.44
2023-04-11T17:22:58.221Z,51.62
2023-04-11T17:25:24.759Z,51.36
2023-04-11T17:27:51.328Z,51.76
2023-04-11T17:30:18.020Z,52.04
2023-04-11T17:35:14.470Z,52.23
2023-04-11T17:37:41.073Z,51.75
2023-04-11T17:40:12.185Z,52.02
2023-04-11T17:42:38.999Z,52.07
2023-04-11T17:45:16.736Z,52.12
2023-04-11T17:47:43.987Z,52.09
2023-04-11T17:50:11.556Z,52.04
2023-04-11T17:52:46.193Z,51.89
2023-04-11T17:55:14.227Z,51.99
2023-04-11T17:57:40.839Z,52.51
2023-04-11T18:00:28.401Z,52.16
2023-04-11T18:02:57.743Z,52.26
2023-04-11T18:05:28.290Z,52.25
2023-04-11T18:07:57.256Z,52.38
2023-04-11T18:10:24.614Z,52.20
2023-04-11T18:12:51.735Z,52.29
2023-04-11T18:15:18.429Z,52.31
2023-04-11T18:17:45.340Z,52.53
2023-04-11T18:20:12.339Z,52.31
2023-04-11T18:22:40.085Z,52.14
2023-04-11T18:25:07.304Z,52.27
2023-04-11T18:27:34.318Z,52.16
2023-04-11T18:30:01.125Z,52.18
2023-04-11T18:32:30.147Z,52.27
2023-04-11T18:35:03.649Z,52.11
2023-04-11T18:37:34.043Z,52.08
2023-04-11T18:40:00.650Z,52.09
2023-04-11T18:42:27.218Z,52.19
2023-04-11T18:44:54.288Z,52.36
2023-04-11T18:47:21.129Z,52.36
2023-04-11T18:49:47.716Z,52.40
2023-04-11T18:52:14.343Z,52.47
2023-04-11T18:54:40.965Z,52.47
2023-04-11T18:57:08.055Z,52.04
2023-04-11T18:59:39.529Z,52.10
2023-04-11T19:02:07.264Z,52.10
2023-04-11T19:04:34.044Z,52.05
2023-04-11T19:07:01.323Z,52.06
2023-04-11T19:09:28.080Z,52.17
2023-04-11T19:11:54.651Z,52.58
2023-04-11T19:14:21.412Z,52.33
2023-04-11T19:16:48.022Z,52.59
2023-04-11T19:19:14.592Z,52.61
2023-04-11T19:21:42.093Z,51.95
2023-04-11T19:24:09.630Z,52.50
2023-04-11T19:26:36.288Z,52.75
2023-04-11T19:29:02.807Z,52.77
2023-04-11T19:31:32.422Z,53.08
2023-04-11T19:34:00.195Z,52.72
2023-04-11T19:36:29.343Z,52.62
2023-04-11T19:38:55.906Z,52.90
2023-04-11T19:41:22.532Z,52.77
2023-04-11T19:43:49.190Z,52.86
2023-04-11T19:46:16.184Z,52.73
2023-04-11T19:48:43.215Z,52.78
2023-04-11T19:51:10.330Z,52.91
2023-04-11T19:53:38.103Z,53.03
2023-04-11T19:56:08.698Z,53.01
2023-04-11T19:58:35.306Z,53.30
2023-04-11T20:01:02.627Z,53.03
2023-04-11T20:03:29.451Z,52.28
2023-04-11T20:05:56.523Z,53.21
2023-04-11T20:08:23.090Z,53.38
2023-04-11T20:10:49.702Z,53.20
2023-04-11T20:13:19.220Z,53.24
2023-04-11T20:15:45.760Z,53.22
2023-04-11T20:18:12.471Z,53.30
2023-04-11T20:20:39.144Z,53.45
2023-04-11T20:23:06.356Z,53.38
2023-04-11T20:25:33.587Z,53.43
2023-04-11T20:28:00.323Z,53.25
2023-04-11T20:30:26.919Z,53.21
2023-04-11T20:32:53.545Z,53.49
2023-04-11T20:35:20.222Z,53.23
2023-04-11T20:37:47.830Z,53.54
2023-04-11T20:40:14.774Z,53.48
2023-04-11T20:42:42.543Z,53.49
2023-04-11T20:45:10.732Z,53.54
2023-04-11T20:47:40.356Z,53.53
2023-04-11T20:50:08.905Z,53.67
2023-04-11T20:52:35.573Z,53.81
2023-04-11T20:55:02.783Z,53.73
2023-04-11T20:57:33.629Z,53.63
2023-04-11T21:00:00.936Z,53.84
2023-04-11T21:02:27.722Z,53.91
2023-04-11T21:04:55.535Z,53.61
2023-04-11T21:07:22.102Z,53.79
2023-04-11T21:09:49.024Z,53.82
2023-04-11T21:12:15.809Z,53.93
2023-04-11T21:14:42.373Z,53.80
2023-04-11T21:17:09.174Z,54.10
2023-04-11T21:19:36.328Z,53.89
2023-04-11T21:22:03.530Z,53.95
2023-04-11T21:24:33.745Z,53.88
2023-04-11T21:27:01.327Z,54.02
2023-04-11T21:29:28.181Z,54.01
2023-04-11T21:31:54.753Z,54.06
2023-04-11T21:34:21.296Z,54.05
2023-04-11T21:36:47.805Z,53.58
2023-04-11T21:39:14.312Z,54.04
2023-04-11T21:41:41.156Z,54.51
2023-04-11T21:44:07.688Z,54.21
2023-04-11T21:46:34.522Z,54.08
2023-04-11T21:49:01.138Z,54.53
2023-04-11T21:51:28.159Z,54.34
2023-04-11T21:53:54.747Z,54.59
2023-04-11T21:56:21.396Z,53.94
2023-04-11T21:58:47.948Z,54.34
2023-04-11T22:01:15.341Z,54.10
2023-04-11T22:03:42.646Z,54.06
2023-04-11T22:06:10.258Z,54.29
2023-04-11T22:08:39.014Z,54.31
2023-04-11T22:11:10.246Z,54.20
2023-04-11T22:13:40.062Z,54.16
2023-04-11T22:16:07.328Z,54.23
2023-04-11T22:18:46.142Z,54.21
2023-04-11T22:21:20.056Z,54.23
2023-04-11T22:23:54.373Z,54.21
2023-04-11T22:26:29.292Z,54.08
2023-04-11T22:28:57.324Z,54.21
2023-04-11T22:31:30.258Z,54.13
2023-04-11T22:33:57.608Z,54.02
2023-04-11T22:36:24.521Z,54.25
2023-04-11T22:38:51.062Z,54.32
2023-04-11T22:41:17.919Z,53.94
2023-04-11T22:43:44.517Z,54.08
2023-04-11T22:46:11.179Z,53.88
2023-04-11T22:48:38.113Z,53.99
2023-04-11T22:51:06.043Z,53.87
2023-04-11T22:53:34.310Z,54.03
2023-04-11T22:56:02.020Z,53.69
2023-04-11T22:58:28.619Z,54.01
2023-04-11T23:00:55.707Z,54.09
2023-04-11T23:03:22.435Z,54.13
2023-04-11T23:05:49.677Z,53.65
2023-04-11T23:08:16.682Z,53.78
2023-04-11T23:10:43.264Z,53.73
2023-04-11T23:13:09.837Z,54.04
2023-04-11T23:15:37.366Z,53.37
2023-04-11T23:18:04.087Z,53.72
2023-04-11T23:20:30.966Z,53.71
2023-04-11T23:22:58.395Z,53.82
2023-04-11T23:25:25.308Z,53.63
2023-04-11T23:27:52.574Z,53.65
2023-04-11T23:30:20.094Z,53.89
2023-04-11T23:32:47.073Z,52.99
2023-04-11T23:35:16.744Z,53.51
2023-04-11T23:37:43.377Z,53.59
2023-04-11T23:40:11.206Z,53.40
2023-04-11T23:42:38.476Z,53.51
2023-04-11T23:45:06.658Z,53.43
2023-04-11T23:47:33.787Z,53.41
2023-04-11T23:50:02.618Z,53.34
2023-04-11T23:52:29.263Z,53.38
2023-04-11T23:54:56.437Z,53.37
2023-04-11T23:57:23.381Z,53.18
2023-04-11T23:59:49.883Z,53.12
